createdAt,value
2023-03-07T00:01:37.028Z,19.20
2023-03-07T00:03:38.630Z,18.95
2023-03-07T00:05:42.332Z,19.70
2023-03-07T00:07:43.910Z,17.73
2023-03-07T00:09:46.918Z,18.85
2023-03-07T00:11:49.411Z,18.52
2023-03-07T00:13:51.498Z,18.85
2023-03-07T00:15:53.155Z,19.20
2023-03-07T00:17:54.711Z,19.77
2023-03-07T00:19:56.251Z,18.60
2023-03-07T00:21:59.217Z,18.60
2023-03-07T00:24:00.908Z,18.95
2023-03-07T00:26:05.617Z,17.25
2023-03-07T00:28:07.341Z,18.00
2023-03-07T00:30:12.139Z,18.73
2023-03-07T00:32:13.773Z,17.42
2023-03-07T00:34:15.473Z,16.75
2023-03-07T00:36:18.936Z,17.73
2023-03-07T00:38:21.886Z,18.60
2023-03-07T00:40:23.462Z,17.02
2023-03-07T00:42:25.018Z,17.15
2023-03-07T00:44:26.560Z,16.95
2023-03-07T00:46:28.223Z,17.00
2023-03-07T00:48:30.186Z,17.55
2023-03-07T00:50:31.717Z,18.42
2023-03-07T00:52:33.736Z,17.48
2023-03-07T00:54:36.874Z,15.77
2023-03-07T00:56:38.466Z,17.85
2023-03-07T00:58:40.091Z,15.85
2023-03-07T01:00:41.615Z,17.08
2023-03-07T01:02:43.264Z,17.23
2023-03-07T01:04:44.979Z,16.42
2023-03-07T01:06:46.558Z,16.10
2023-03-07T01:08:48.134Z,17.10
2023-03-07T01:10:51.137Z,18.00
2023-03-07T01:12:52.737Z,17.77
2023-03-07T01:14:54.242Z,17.55
2023-03-07T01:16:55.844Z,16.70
2023-03-07T01:18:59.821Z,16.95
2023-03-07T01:21:01.442Z,16.77
2023-03-07T01:23:03.404Z,17.35
2023-03-07T01:25:05.504Z,18.17
2023-03-07T01:27:08.428Z,16.33
2023-03-07T01:29:11.014Z,16.75
2023-03-07T01:31:12.872Z,16.17
2023-03-07T01:33:14.470Z,16.17
2023-03-07T01:35:16.072Z,16.42
2023-03-07T01:37:20.582Z,15.25
2023-03-07T01:39:22.131Z,17.90
2023-03-07T01:41:24.304Z,16.65
2023-03-07T01:43:29.269Z,16.88
2023-03-07T01:46:07.960Z,16.73
2023-03-07T01:48:09.639Z,16.90
2023-03-07T01:50:14.949Z,18.13
2023-03-07T01:52:20.564Z,15.68
2023-03-07T01:54:24.001Z,17.35
2023-03-07T01:56:26.378Z,16.08
2023-03-07T01:58:30.053Z,16.15
2023-03-07T02:00:31.713Z,15.98
2023-03-07T02:02:33.961Z,17.90
2023-03-07T02:04:41.294Z,16.95
2023-03-07T02:06:43.168Z,16.75
2023-03-07T02:08:48.119Z,16.92
2023-03-07T02:10:49.681Z,16.48
2023-03-07T02:12:53.259Z,17.52
2023-03-07T02:14:56.257Z,17.48
2023-03-07T02:16:57.976Z,17.25
2023-03-07T02:19:00.508Z,16.45
2023-03-07T02:21:10.201Z,15.82
2023-03-07T02:23:20.657Z,16.73
2023-03-07T02:25:29.769Z,15.63
2023-03-07T02:27:35.744Z,16.33
2023-03-07T02:29:37.463Z,15.55
2023-03-07T02:31:39.439Z,15.05
2023-03-07T02:33:40.956Z,14.30
2023-03-07T02:35:42.638Z,14.82
2023-03-07T02:37:47.285Z,15.50
2023-03-07T02:40:37.665Z,14.65
2023-03-07T02:42:56.523Z,14.57
2023-03-07T02:47:52.748Z,17.13
2023-03-07T02:49:57.164Z,15.95
2023-03-07T02:54:37.489Z,15.68
2023-03-07T03:00:00.838Z,16.23
2023-03-07T03:11:21.092Z,14.77
2023-03-07T03:13:51.920Z,14.95
2023-03-07T03:16:02.079Z,14.27
2023-03-07T03:20:32.179Z,16.40
2023-03-07T03:22:44.279Z,15.10
2023-03-07T03:25:19.259Z,15.07
2023-03-07T03:27:48.402Z,16.02
2023-03-07T03:33:04.059Z,15.73
2023-03-07T03:38:02.394Z,14.98
2023-03-07T03:40:04.661Z,15.07
2023-03-07T03:42:06.470Z,16.05
2023-03-07T03:44:08.295Z,17.15
2023-03-07T03:46:11.494Z,15.55
2023-03-07T03:48:14.501Z,16.48
2023-03-07T03:50:16.112Z,16.35
2023-03-07T03:52:17.663Z,16.10
2023-03-07T03:54:19.359Z,17.50
2023-03-07T03:56:23.260Z,17.30
2023-03-07T03:58:24.793Z,16.17
2023-03-07T04:00:26.337Z,17.20
2023-03-07T04:02:28.018Z,16.13
2023-03-07T04:04:30.979Z,16.00
2023-03-07T04:06:34.689Z,17.63
2023-03-07T04:08:36.893Z,17.40
2023-03-07T04:10:38.778Z,15.63
2023-03-07T04:12:40.637Z,17.00
2023-03-07T04:14:42.230Z,15.60
2023-03-07T04:16:43.815Z,16.40
2023-03-07T04:18:45.938Z,16.17
2023-03-07T04:20:50.181Z,17.55
2023-03-07T04:22:51.718Z,17.17
2023-03-07T04:24:53.276Z,16.63
2023-03-07T04:26:54.813Z,17.80
2023-03-07T04:28:56.484Z,17.48
2023-03-07T04:30:58.190Z,18.23
2023-03-07T04:32:59.793Z,16.40
2023-03-07T04:35:01.313Z,16.95
2023-03-07T04:37:04.186Z,17.60
2023-03-07T04:39:05.840Z,15.45
2023-03-07T04:41:08.009Z,17.80
2023-03-07T04:43:09.638Z,18.08
2023-03-07T04:45:11.458Z,17.63
2023-03-07T04:47:13.016Z,16.80
2023-03-07T04:49:14.978Z,17.90
2023-03-07T04:51:16.765Z,16.85
2023-03-07T04:53:20.104Z,17.88
2023-03-07T04:55:21.777Z,17.52
2023-03-07T04:57:23.329Z,17.30
2023-03-07T04:59:24.941Z,17.35
2023-03-07T05:01:26.549Z,18.52
2023-03-07T05:03:29.096Z,17.30
2023-03-07T05:05:30.647Z,17.23
2023-03-07T05:07:32.265Z,17.17
2023-03-07T05:09:35.597Z,16.20
2023-03-07T05:11:37.145Z,17.77
2023-03-07T05:13:38.736Z,15.93
2023-03-07T05:15:40.364Z,16.60
2023-03-07T05:17:41.989Z,18.27
2023-03-07T05:19:43.636Z,17.50
2023-03-07T05:21:45.368Z,17.80
2023-03-07T05:23:47.111Z,17.60
2023-03-07T05:25:50.143Z,17.40
2023-03-07T05:27:51.704Z,17.45
2023-03-07T05:29:53.403Z,13.93
2023-03-07T05:31:54.952Z,16.67
2023-03-07T05:33:56.605Z,17.10
2023-03-07T05:35:59.829Z,15.77
2023-03-07T05:38:01.407Z,15.13
2023-03-07T05:40:04.579Z,15.95
2023-03-07T05:42:07.974Z,15.75
2023-03-07T05:44:09.649Z,14.60
2023-03-07T05:46:11.321Z,15.77
2023-03-07T05:48:12.880Z,16.33
2023-03-07T05:50:14.421Z,16.67
2023-03-07T05:52:16.023Z,14.93
2023-03-07T05:54:17.548Z,15.52
2023-03-07T05:56:19.077Z,14.93
2023-03-07T05:58:22.021Z,15.25
2023-03-07T06:00:23.548Z,15.30
2023-03-07T06:02:25.092Z,14.98
2023-03-07T06:04:26.773Z,15.10
2023-03-07T06:06:28.381Z,14.55
2023-03-07T06:08:29.942Z,14.07
2023-03-07T06:10:31.557Z,15.73
2023-03-07T06:12:33.143Z,14.65
2023-03-07T06:14:36.672Z,13.98
2023-03-07T06:16:38.293Z,13.90
2023-03-07T06:18:40.018Z,15.20
2023-03-07T06:20:41.643Z,13.32
2023-03-07T06:22:43.209Z,14.52
2023-03-07T06:24:44.837Z,15.07
2023-03-07T06:26:46.714Z,13.90
2023-03-07T06:28:48.516Z,14.80
2023-03-07T06:30:51.712Z,13.57
2023-03-07T06:32:53.277Z,13.65
2023-03-07T06:34:54.825Z,16.15
2023-03-07T06:36:56.416Z,13.88
2023-03-07T06:38:57.998Z,14.80
2023-03-07T06:40:59.588Z,14.25
2023-03-07T06:43:01.377Z,13.60
2023-03-07T06:45:03.239Z,13.85
2023-03-07T06:47:06.461Z,13.30
2023-03-07T06:49:11.373Z,12.98
2023-03-07T06:51:13.886Z,13.70
2023-03-07T06:53:15.940Z,13.57
2023-03-07T06:55:17.976Z,13.45
2023-03-07T06:57:19.538Z,14.18
2023-03-07T06:59:21.574Z,12.85
2023-03-07T07:01:23.151Z,12.52
2023-03-07T07:03:26.117Z,13.32
2023-03-07T07:05:27.669Z,14.02
2023-03-07T07:07:30.113Z,12.07
2023-03-07T07:09:31.822Z,12.85
2023-03-07T07:11:33.455Z,13.05
2023-03-07T07:13:35.114Z,12.10
2023-03-07T07:15:36.672Z,12.10
2023-03-07T07:17:38.209Z,13.98
2023-03-07T07:19:41.159Z,12.20
2023-03-07T07:21:42.977Z,13.43
2023-03-07T07:23:44.613Z,13.07
2023-03-07T07:25:46.257Z,13.02
2023-03-07T07:27:47.852Z,13.27
2023-03-07T07:29:49.504Z,12.35
2023-03-07T07:31:51.128Z,13.20
2023-03-07T07:33:52.910Z,13.90
2023-03-07T07:35:58.224Z,12.75
2023-03-07T07:37:59.936Z,13.73
2023-03-07T07:40:01.562Z,14.60
2023-03-07T07:42:03.708Z,11.80
2023-03-07T07:44:05.527Z,13.50
2023-03-07T07:46:07.379Z,11.57
2023-03-07T07:48:09.280Z,11.95
2023-03-07T07:50:11.193Z,12.32
2023-03-07T07:52:14.160Z,11.90
2023-03-07T07:54:15.779Z,11.30
2023-03-07T07:56:17.405Z,11.35
2023-03-07T07:58:18.954Z,11.50
2023-03-07T08:00:21.402Z,11.35
2023-03-07T08:02:22.985Z,13.23
2023-03-07T08:04:24.649Z,11.13
2023-03-07T08:06:28.285Z,12.02
2023-03-07T08:08:40.077Z,12.35
2023-03-07T08:10:41.848Z,12.35
2023-03-07T08:12:43.819Z,11.52
2023-03-07T08:14:45.374Z,12.63
2023-03-07T08:16:46.982Z,12.25
2023-03-07T08:18:49.619Z,11.88
2023-03-07T08:20:51.221Z,11.85
2023-03-07T08:22:52.813Z,12.68
2023-03-07T08:24:55.797Z,13.40
2023-03-07T08:26:57.335Z,12.68
2023-03-07T08:28:58.956Z,12.95
2023-03-07T08:31:06.436Z,13.07
2023-03-07T08:33:08.039Z,11.77
2023-03-07T08:35:09.938Z,13.07
2023-03-07T08:37:11.595Z,11.48
2023-03-07T08:39:13.260Z,12.60
2023-03-07T08:41:16.240Z,11.88
2023-03-07T08:43:17.800Z,10.55
2023-03-07T08:45:20.210Z,10.80
2023-03-07T08:47:22.522Z,11.70
2023-03-07T08:49:24.131Z,10.55
2023-03-07T08:51:25.700Z,12.32
2023-03-07T08:53:27.224Z,10.73
2023-03-07T08:55:29.207Z,11.90
2023-03-07T08:57:32.108Z,10.35
2023-03-07T08:59:34.486Z,12.05
2023-03-07T09:01:36.072Z,11.02
2023-03-07T09:03:37.728Z,12.00
2023-03-07T09:05:39.363Z,11.85
2023-03-07T09:07:41.038Z,11.43
2023-03-07T09:09:42.841Z,11.85
2023-03-07T09:11:44.434Z,11.00
2023-03-07T09:13:52.345Z,10.70
2023-03-07T09:15:54.617Z,11.25
2023-03-07T09:17:56.263Z,12.02
2023-03-07T09:19:58.106Z,11.82
2023-03-07T09:21:59.776Z,11.15
2023-03-07T09:24:01.463Z,11.45
2023-03-07T09:26:03.647Z,10.05
2023-03-07T09:28:05.248Z,11.75
2023-03-07T09:30:09.949Z,11.82
2023-03-07T09:32:11.537Z,12.50
2023-03-07T09:34:13.148Z,10.88
2023-03-07T09:36:15.775Z,11.23
2023-03-07T09:38:17.378Z,11.43
2023-03-07T09:40:22.144Z,10.50
2023-03-07T09:42:28.658Z,11.48
2023-03-07T09:44:42.345Z,11.02
2023-03-07T09:46:56.229Z,10.23
2023-03-07T09:49:17.526Z,12.05
2023-03-07T09:51:24.157Z,10.63
2023-03-07T09:53:35.017Z,9.85
2023-03-07T09:55:36.676Z,9.45
2023-03-07T09:57:47.724Z,9.73
2023-03-07T09:59:53.741Z,10.63
2023-03-07T10:02:04.452Z,9.13
2023-03-07T10:04:12.260Z,9.75
2023-03-07T10:06:22.246Z,10.68
2023-03-07T10:08:30.832Z,10.70
2023-03-07T10:10:37.733Z,9.80
2023-03-07T10:13:09.274Z,9.60
2023-03-07T10:15:35.318Z,9.50
2023-03-07T10:18:06.269Z,10.30
2023-03-07T10:20:19.400Z,8.55
2023-03-07T10:22:30.720Z,9.70
2023-03-07T10:24:53.152Z,8.27
2023-03-07T10:27:00.424Z,9.95
2023-03-07T10:29:13.503Z,10.20
2023-03-07T10:31:22.828Z,7.57
2023-03-07T10:33:28.347Z,9.02
2023-03-07T10:35:39.803Z,9.38
2023-03-07T10:37:47.169Z,9.48
2023-03-07T10:39:51.637Z,9.70
2023-03-07T10:41:57.301Z,9.38
2023-03-07T10:43:58.872Z,10.25
2023-03-07T10:46:23.612Z,9.40
2023-03-07T10:48:30.012Z,9.30
2023-03-07T10:50:41.628Z,10.23
2023-03-07T10:52:47.466Z,9.35
2023-03-07T10:54:49.153Z,6.90
2023-03-07T10:57:06.586Z,6.88
2023-03-07T10:59:09.712Z,7.80
2023-03-07T11:01:17.278Z,8.23
2023-03-07T11:03:26.961Z,10.00
2023-03-07T11:05:32.438Z,9.13
2023-03-07T11:07:35.895Z,9.07
2023-03-07T11:09:47.326Z,8.95
2023-03-07T11:11:52.620Z,8.48
2023-03-07T11:14:06.232Z,9.73
2023-03-07T11:16:15.974Z,9.00
2023-03-07T11:18:30.256Z,7.50
2023-03-07T11:20:48.909Z,8.57
2023-03-07T11:23:07.818Z,8.00
2023-03-07T11:25:16.231Z,10.13
2023-03-07T11:27:23.746Z,7.85
2023-03-07T11:29:26.177Z,8.00
2023-03-07T11:31:34.340Z,8.02
2023-03-07T11:33:58.599Z,8.05
2023-03-07T11:36:08.306Z,8.07
2023-03-07T11:38:20.788Z,8.05
2023-03-07T11:40:24.846Z,8.15
2023-03-07T11:42:32.664Z,9.73
2023-03-07T11:44:40.339Z,8.07
2023-03-07T11:46:57.952Z,7.47
2023-03-07T11:49:12.979Z,8.35
2023-03-07T11:51:31.799Z,8.23
2023-03-07T11:53:49.875Z,8.07
2023-03-07T11:56:00.681Z,7.97
2023-03-07T11:58:35.264Z,7.60
2023-03-07T12:00:48.171Z,7.22
2023-03-07T12:03:15.618Z,7.95
2023-03-07T12:05:29.931Z,7.97
2023-03-07T12:07:49.427Z,7.90
2023-03-07T12:09:58.570Z,7.50
2023-03-07T12:12:18.187Z,7.38
2023-03-07T12:14:30.422Z,8.02
2023-03-07T12:16:42.258Z,7.28
2023-03-07T12:18:58.560Z,7.70
2023-03-07T12:21:15.008Z,6.93
2023-03-07T12:23:20.765Z,7.13
2023-03-07T12:25:24.998Z,7.40
2023-03-07T12:27:32.749Z,6.70
2023-03-07T12:29:38.076Z,7.35
2023-03-07T12:31:43.452Z,7.13
2023-03-07T12:33:56.439Z,7.40
2023-03-07T12:36:02.889Z,7.68
2023-03-07T12:38:12.167Z,7.13
2023-03-07T12:40:20.723Z,7.20
2023-03-07T12:42:32.785Z,6.70
2023-03-07T12:44:40.205Z,6.68
2023-03-07T12:46:49.510Z,7.00
2023-03-07T12:48:56.936Z,7.63
2023-03-07T12:51:04.554Z,7.30
2023-03-07T12:53:13.697Z,6.45
2023-03-07T12:55:23.090Z,7.00
2023-03-07T12:57:28.870Z,7.20
2023-03-07T12:59:34.025Z,6.95
2023-03-07T13:01:40.624Z,7.55
2023-03-07T13:03:49.409Z,7.90
2023-03-07T13:05:51.491Z,7.88
2023-03-07T13:07:54.714Z,7.63
2023-03-07T13:09:59.153Z,7.57
2023-03-07T13:12:24.361Z,8.63
2023-03-07T13:14:39.492Z,6.80
2023-03-07T13:16:43.566Z,8.00
2023-03-07T13:18:45.218Z,7.10
2023-03-07T13:21:07.871Z,6.90
2023-03-07T13:23:29.367Z,8.00
2023-03-07T13:26:01.965Z,6.82
2023-03-07T13:28:30.860Z,8.30
2023-03-07T13:30:33.704Z,7.03
2023-03-07T13:33:01.590Z,7.80
2023-03-07T13:35:03.370Z,7.45
2023-03-07T13:37:52.401Z,7.28
2023-03-07T13:40:00.176Z,7.70
2023-03-07T13:42:01.838Z,8.20
2023-03-07T13:44:04.862Z,7.15
2023-03-07T13:46:29.011Z,7.95
2023-03-07T13:49:01.410Z,8.20
2023-03-07T13:51:06.707Z,7.07
2023-03-07T13:53:13.789Z,6.75
2023-03-07T13:55:27.949Z,7.40
2023-03-07T13:57:37.582Z,7.00
2023-03-07T13:59:40.529Z,7.18
2023-03-07T14:01:46.300Z,7.50
2023-03-07T14:03:51.807Z,8.07
2023-03-07T14:05:53.539Z,7.00
2023-03-07T14:07:57.237Z,7.88
2023-03-07T14:10:12.709Z,7.30
2023-03-07T14:12:33.599Z,7.75
2023-03-07T14:14:52.695Z,7.63
2023-03-07T14:17:07.529Z,7.75
2023-03-07T14:19:19.060Z,6.90
2023-03-07T14:21:29.787Z,7.22
2023-03-07T14:23:54.815Z,6.40
2023-03-07T14:26:05.067Z,7.60
2023-03-07T14:28:21.033Z,6.95
2023-03-07T14:30:26.678Z,7.35
2023-03-07T14:32:30.584Z,7.30
2023-03-07T14:34:33.628Z,8.93
2023-03-07T14:36:35.326Z,8.98
2023-03-07T14:38:46.047Z,9.50
2023-03-07T14:41:11.790Z,8.32
2023-03-07T14:43:28.243Z,7.75
2023-03-07T14:45:40.455Z,7.72
2023-03-07T14:48:06.101Z,8.10
2023-03-07T14:50:12.770Z,10.02
2023-03-07T14:52:29.928Z,8.80
2023-03-07T14:54:33.996Z,8.50
2023-03-07T14:56:37.812Z,9.32
2023-03-07T14:58:48.260Z,8.48
2023-03-07T15:00:59.990Z,7.43
2023-03-07T15:03:03.540Z,6.93
2023-03-07T15:05:15.110Z,7.50
2023-03-07T15:07:21.596Z,6.50
2023-03-07T15:09:24.141Z,6.10
2023-03-07T15:11:32.410Z,7.10
2023-03-07T15:13:38.304Z,6.57
2023-03-07T15:15:45.201Z,6.85
2023-03-07T15:17:48.633Z,7.30
2023-03-07T15:19:54.144Z,6.32
2023-03-07T15:21:57.907Z,6.80
2023-03-07T15:24:00.109Z,7.47
2023-03-07T15:26:04.109Z,8.30
2023-03-07T15:28:15.920Z,6.75
2023-03-07T15:30:28.288Z,6.82
2023-03-07T15:32:33.564Z,7.70
2023-03-07T15:34:38.482Z,6.82
2023-03-07T15:36:40.063Z,6.65
2023-03-07T15:38:44.014Z,7.65
2023-03-07T15:40:45.955Z,7.63
2023-03-07T15:42:49.187Z,7.85
2023-03-07T15:44:54.737Z,7.00
2023-03-07T15:46:59.224Z,7.35
2023-03-07T15:49:00.874Z,7.10
2023-03-07T15:51:06.710Z,7.13
2023-03-07T15:53:10.211Z,7.47
2023-03-07T15:55:18.131Z,7.68
2023-03-07T15:57:22.700Z,7.53
2023-03-07T15:59:29.606Z,6.97
2023-03-07T16:01:31.213Z,6.90
2023-03-07T16:03:33.353Z,6.88
2023-03-07T16:05:38.190Z,7.05
2023-03-07T16:07:41.106Z,7.95
2023-03-07T16:09:42.848Z,8.77
2023-03-07T16:11:46.087Z,8.98
2023-03-07T16:13:48.275Z,7.70
2023-03-07T16:16:13.761Z,9.45
2023-03-07T16:18:23.615Z,8.75
2023-03-07T16:20:27.095Z,9.02
2023-03-07T16:22:28.897Z,7.88
2023-03-07T16:24:31.867Z,9.90
2023-03-07T16:26:33.660Z,9.25
2023-03-07T16:28:35.384Z,9.05
2023-03-07T16:30:37.310Z,8.77
2023-03-07T16:32:38.922Z,8.40
2023-03-07T16:34:41.994Z,9.45
2023-03-07T16:36:45.096Z,9.75
2023-03-07T16:38:46.989Z,8.70
2023-03-07T16:40:49.934Z,10.73
2023-03-07T16:42:51.636Z,9.07
2023-03-07T16:44:53.485Z,9.43
2023-03-07T16:46:58.697Z,10.45
2023-03-07T16:49:00.404Z,11.10
2023-03-07T16:51:02.773Z,9.00
2023-03-07T16:53:04.396Z,9.13
2023-03-07T16:55:08.798Z,8.95
2023-03-07T16:57:15.742Z,10.02
2023-03-07T16:59:20.106Z,9.10
2023-03-07T17:01:21.761Z,10.10
2023-03-07T17:03:23.381Z,9.80
2023-03-07T17:05:27.336Z,8.95
2023-03-07T17:07:28.946Z,10.07
2023-03-07T17:09:30.552Z,10.07
2023-03-07T17:11:32.767Z,9.52
2023-03-07T17:13:35.750Z,10.07
2023-03-07T17:15:37.295Z,11.23
2023-03-07T17:17:39.069Z,9.35
2023-03-07T17:19:40.654Z,9.25
2023-03-07T17:21:42.182Z,10.45
2023-03-07T17:23:44.140Z,9.88
2023-03-07T17:25:45.689Z,10.63
2023-03-07T17:27:51.213Z,9.45
2023-03-07T17:29:54.881Z,9.10
2023-03-07T17:31:56.465Z,9.32
2023-03-07T17:34:01.259Z,8.80
2023-03-07T17:36:03.446Z,9.23
2023-03-07T17:38:05.422Z,9.02
2023-03-07T17:40:07.559Z,8.20
2023-03-07T17:42:09.342Z,8.38
2023-03-07T17:44:11.246Z,8.13
2023-03-07T17:46:14.286Z,9.60
2023-03-07T17:48:16.039Z,8.65
2023-03-07T17:50:17.978Z,8.70
2023-03-07T17:52:19.640Z,10.32
2023-03-07T17:54:21.248Z,9.75
2023-03-07T17:56:23.063Z,7.75
2023-03-07T17:58:24.684Z,9.27
2023-03-07T18:00:26.517Z,8.73
2023-03-07T18:02:29.454Z,8.05
2023-03-07T18:04:38.316Z,8.15
2023-03-07T18:06:41.017Z,8.55
2023-03-07T18:08:42.733Z,8.82
2023-03-07T18:10:44.330Z,8.25
2023-03-07T18:12:46.158Z,9.02
2023-03-07T18:14:47.678Z,9.85
2023-03-07T18:16:49.470Z,9.32
2023-03-07T18:18:59.512Z,8.95
2023-03-07T18:21:04.932Z,9.57
2023-03-07T18:23:06.483Z,9.30
2023-03-07T18:25:13.225Z,8.82
2023-03-07T18:27:14.824Z,9.13
2023-03-07T18:29:16.640Z,9.30
2023-03-07T18:31:20.118Z,9.18
2023-03-07T18:33:21.720Z,8.93
2023-03-07T18:35:25.086Z,9.52
2023-03-07T18:37:27.688Z,8.65
2023-03-07T18:39:29.621Z,7.95
2023-03-07T18:41:31.284Z,8.48
2023-03-07T18:43:32.995Z,10.10
2023-03-07T18:45:34.528Z,9.48
2023-03-07T18:47:36.189Z,8.77
2023-03-07T18:49:37.815Z,9.70
2023-03-07T18:51:40.695Z,9.38
2023-03-07T18:53:42.917Z,8.60
2023-03-07T18:55:44.455Z,9.75
2023-03-07T18:57:46.083Z,9.82
2023-03-07T18:59:47.628Z,9.45
2023-03-07T19:01:49.331Z,9.75
2023-03-07T19:03:52.349Z,8.00
2023-03-07T19:05:53.942Z,8.40
2023-03-07T19:07:56.941Z,7.70
2023-03-07T19:09:58.557Z,8.20
2023-03-07T19:12:00.128Z,8.40
2023-03-07T19:14:01.977Z,8.35
2023-03-07T19:16:05.695Z,8.30
2023-03-07T19:18:07.323Z,8.07
2023-03-07T19:20:10.176Z,8.55
2023-03-07T19:22:11.680Z,8.48
2023-03-07T19:24:14.682Z,8.25
2023-03-07T19:26:17.941Z,8.23
2023-03-07T19:28:19.501Z,8.20
2023-03-07T19:30:21.288Z,8.60
2023-03-07T19:32:24.742Z,9.30
2023-03-07T19:34:26.432Z,9.40
2023-03-07T19:36:29.474Z,8.77
2023-03-07T19:38:31.146Z,8.57
2023-03-07T19:40:34.111Z,8.63
2023-03-07T19:42:35.729Z,8.30
2023-03-07T19:44:37.503Z,8.82
2023-03-07T19:46:39.078Z,8.63
2023-03-07T19:48:40.975Z,8.82
2023-03-07T19:50:42.584Z,8.85
2023-03-07T19:52:44.271Z,8.45
2023-03-07T19:54:46.004Z,9.23
2023-03-07T19:56:49.411Z,8.50
2023-03-07T19:58:51.259Z,9.23
2023-03-07T20:00:52.811Z,8.52
2023-03-07T20:02:54.563Z,9.23
2023-03-07T20:04:56.343Z,9.13
2023-03-07T20:06:57.979Z,8.98
2023-03-07T20:09:00.594Z,8.75
2023-03-07T20:11:10.582Z,8.15
2023-03-07T20:13:13.572Z,8.98
2023-03-07T20:15:15.304Z,9.65
2023-03-07T20:17:16.856Z,10.13
2023-03-07T20:19:18.627Z,9.32
2023-03-07T20:21:21.548Z,8.40
2023-03-07T20:23:23.103Z,8.60
2023-03-07T20:25:27.940Z,8.13
2023-03-07T20:27:29.910Z,7.85
2023-03-07T20:29:32.816Z,8.77
2023-03-07T20:31:35.288Z,8.98
2023-03-07T20:33:38.499Z,9.00
2023-03-07T20:35:40.062Z,8.55
2023-03-07T20:37:41.684Z,8.70
2023-03-07T20:39:43.347Z,8.40
2023-03-07T20:41:44.950Z,8.68
2023-03-07T20:43:47.202Z,7.63
2023-03-07T20:45:50.157Z,9.63
2023-03-07T20:47:51.750Z,9.73
2023-03-07T20:49:53.385Z,8.55
2023-03-07T20:51:58.137Z,8.75
2023-03-07T20:54:01.413Z,8.43
2023-03-07T20:56:03.942Z,8.38
2023-03-07T20:58:05.556Z,9.25
2023-03-07T21:00:08.641Z,8.38
2023-03-07T21:02:11.640Z,8.38
2023-03-07T21:04:15.256Z,9.18
2023-03-07T21:06:17.413Z,8.10
2023-03-07T21:08:18.998Z,8.45
2023-03-07T21:10:20.629Z,8.90
2023-03-07T21:12:22.134Z,8.40
2023-03-07T21:14:23.673Z,8.80
2023-03-07T21:16:25.997Z,8.68
2023-03-07T21:18:29.468Z,9.60
2023-03-07T21:20:33.960Z,9.40
2023-03-07T21:22:35.571Z,9.82
2023-03-07T21:24:37.124Z,8.93
2023-03-07T21:26:38.977Z,9.80
2023-03-07T21:28:43.357Z,11.02
2023-03-07T21:30:44.917Z,8.82
2023-03-07T21:32:46.542Z,9.40
2023-03-07T21:34:49.613Z,8.57
2023-03-07T21:36:53.949Z,7.63
2023-03-07T21:38:55.911Z,8.23
2023-03-07T21:40:59.966Z,9.10
2023-03-07T21:43:01.519Z,8.15
2023-03-07T21:45:03.219Z,8.82
2023-03-07T21:47:04.924Z,9.27
2023-03-07T21:49:06.560Z,9.00
2023-03-07T21:51:10.363Z,8.70
2023-03-07T21:53:12.256Z,8.32
2023-03-07T21:55:13.959Z,8.35
2023-03-07T21:57:15.641Z,9.13
2023-03-07T21:59:18.255Z,8.88
2023-03-07T22:01:23.400Z,8.80
2023-03-07T22:03:26.422Z,9.10
2023-03-07T22:05:28.283Z,8.65
2023-03-07T22:07:31.612Z,8.18
2023-03-07T22:09:33.950Z,8.20
2023-03-07T22:11:35.507Z,9.25
2023-03-07T22:13:38.556Z,9.10
2023-03-07T22:15:40.102Z,8.90
2023-03-07T22:17:41.721Z,8.60
2023-03-07T22:19:43.237Z,8.93
2023-03-07T22:21:44.844Z,9.10
2023-03-07T22:23:49.495Z,8.18
2023-03-07T22:25:51.201Z,8.95
2023-03-07T22:27:52.753Z,8.65
2023-03-07T22:29:54.307Z,8.65
2023-03-07T22:31:55.916Z,9.32
2023-03-07T22:33:58.420Z,8.98
2023-03-07T22:36:02.386Z,9.43
2023-03-07T22:38:04.048Z,8.55
2023-03-07T22:40:09.168Z,9.07
2023-03-07T22:42:10.841Z,8.35
2023-03-07T22:44:12.377Z,9.45
2023-03-07T22:46:14.276Z,8.40
2023-03-07T22:48:16.273Z,8.98
2023-03-07T22:50:18.043Z,9.77
2023-03-07T22:52:19.622Z,9.18
2023-03-07T22:54:21.301Z,9.15
2023-03-07T22:56:26.079Z,7.80
2023-03-07T22:58:31.878Z,9.02
2023-03-07T23:00:33.587Z,9.02
2023-03-07T23:02:35.120Z,9.35
2023-03-07T23:04:36.788Z,8.95
2023-03-07T23:06:40.347Z,9.30
2023-03-07T23:08:44.377Z,8.00
2023-03-07T23:10:46.045Z,8.23
2023-03-07T23:12:50.730Z,7.72
2023-03-07T23:14:52.760Z,9.20
2023-03-07T23:16:54.672Z,8.50
2023-03-07T23:18:58.526Z,8.20
2023-03-07T23:21:01.834Z,8.32
2023-03-07T23:23:03.379Z,9.27
2023-03-07T23:25:05.429Z,8.20
2023-03-07T23:27:07.105Z,8.13
2023-03-07T23:29:10.441Z,8.00
2023-03-07T23:31:16.463Z,7.65
2023-03-07T23:33:18.221Z,7.95
2023-03-07T23:35:19.786Z,7.93
2023-03-07T23:37:21.469Z,8.68
2023-03-07T23:39:23.008Z,8.10
2023-03-07T23:41:25.206Z,7.82
2023-03-07T23:43:27.128Z,8.00
2023-03-07T23:45:30.374Z,10.07
2023-03-07T23:47:31.943Z,8.05
2023-03-07T23:49:33.655Z,8.43
2023-03-07T23:51:38.217Z,8.80
2023-03-07T23:53:39.770Z,8.40
2023-03-07T23:55:41.960Z,8.77
2023-03-07T23:57:43.509Z,9.68
2023-03-07T23:59:47.454Z,9.23
